createdAt,value
2018-08-18T00:00:21.420Z,11.50
2018-08-18T00:02:50.357Z,11.48
2018-08-18T00:05:19.574Z,11.60
2018-08-18T00:07:48.861Z,11.28
2018-08-18T00:10:22.427Z,11.70
2018-08-18T00:12:51.600Z,11.38
2018-08-18T00:15:21.211Z,11.65
2018-08-18T00:17:50.129Z,11.93
2018-08-18T00:20:21.233Z,11.83
2018-08-18T00:22:50.270Z,11.75
2018-08-18T00:25:19.272Z,11.48
2018-08-18T00:27:49.712Z,11.10
2018-08-18T00:30:23.896Z,11.03
2018-08-18T00:32:54.132Z,11.97
2018-08-18T00:35:23.357Z,12.13
2018-08-18T00:37:52.625Z,11.90
2018-08-18T00:40:22.564Z,12.25
2018-08-18T00:42:51.757Z,12.45
2018-08-18T00:45:20.849Z,10.80
2018-08-18T00:47:51.228Z,11.78
2018-08-18T00:50:34.104Z,11.35
2018-08-18T00:53:03.732Z,11.48
2018-08-18T00:55:32.788Z,11.68
2018-08-18T00:58:01.667Z,10.82
2018-08-18T01:00:30.725Z,12.28
2018-08-18T01:03:00.930Z,13.05
2018-08-18T01:05:30.009Z,12.88
2018-08-18T01:07:59.139Z,12.30
2018-08-18T01:10:29.059Z,11.93
2018-08-18T01:12:58.771Z,12.25
2018-08-18T01:15:29.353Z,13.43
2018-08-18T01:17:58.765Z,13.25
2018-08-18T01:20:27.728Z,13.93
2018-08-18T01:23:00.242Z,14.20
2018-08-18T01:25:30.043Z,13.60
2018-08-18T01:27:59.946Z,14.35
2018-08-18T01:30:29.152Z,14.20
2018-08-18T01:32:58.155Z,14.83
2018-08-18T01:35:27.069Z,14.00
2018-08-18T01:37:55.958Z,13.70
2018-08-18T01:40:25.021Z,16.57
2018-08-18T01:42:53.822Z,13.18
2018-08-18T01:45:23.314Z,12.35
2018-08-18T01:47:52.337Z,12.53
2018-08-18T01:50:21.517Z,12.55
2018-08-18T01:52:50.846Z,13.45
2018-08-18T01:55:19.915Z,12.98
2018-08-18T01:57:49.327Z,13.45
2018-08-18T02:00:26.630Z,13.43
2018-08-18T02:02:55.606Z,14.25
2018-08-18T02:05:24.909Z,14.55
2018-08-18T02:07:54.755Z,14.70
2018-08-18T02:10:23.624Z,14.68
2018-08-18T02:13:02.400Z,14.93
2018-08-18T02:15:31.919Z,15.05
2018-08-18T02:18:00.848Z,15.13
2018-08-18T02:20:30.361Z,14.83
2018-08-18T02:22:59.794Z,14.50
2018-08-18T02:25:28.547Z,15.13
2018-08-18T02:27:57.627Z,13.43
2018-08-18T02:30:26.526Z,13.95
2018-08-18T02:32:55.503Z,13.32
2018-08-18T02:35:24.986Z,15.05
2018-08-18T02:37:54.124Z,15.35
2018-08-18T02:40:23.627Z,15.18
2018-08-18T02:42:52.783Z,14.83
2018-08-18T02:45:21.743Z,15.75
2018-08-18T02:48:04.335Z,15.98
2018-08-18T02:50:33.590Z,15.00
2018-08-18T02:53:07.094Z,15.48
2018-08-18T02:55:35.805Z,15.55
2018-08-18T02:58:04.542Z,15.85
2018-08-18T03:00:35.395Z,14.58
2018-08-18T03:03:04.867Z,13.80
2018-08-18T03:05:35.474Z,14.25
2018-08-18T03:08:04.710Z,13.05
2018-08-18T03:10:33.971Z,14.50
2018-08-18T03:13:03.601Z,14.10
2018-08-18T03:16:12.272Z,15.03
2018-08-18T03:18:56.880Z,15.13
2018-08-18T03:21:31.727Z,16.62
2018-08-18T03:24:12.282Z,15.30
2018-08-18T03:26:49.446Z,14.90
2018-08-18T03:29:19.196Z,15.25
2018-08-18T03:31:48.481Z,16.32
2018-08-18T03:34:17.918Z,16.35
2018-08-18T03:36:49.359Z,17.12
2018-08-18T03:39:27.336Z,16.37
2018-08-18T03:42:01.561Z,16.57
2018-08-18T03:44:31.030Z,14.98
2018-08-18T03:47:00.071Z,14.25
2018-08-18T03:49:29.421Z,15.40
2018-08-18T03:51:59.399Z,14.58
2018-08-18T03:54:28.366Z,14.55
2018-08-18T03:56:57.171Z,13.80
2018-08-18T03:59:26.204Z,13.58
2018-08-18T04:01:59.694Z,13.20
2018-08-18T04:04:31.684Z,14.70
2018-08-18T04:07:01.703Z,14.13
2018-08-18T04:09:36.521Z,13.88
2018-08-18T04:12:07.832Z,13.35
2018-08-18T04:14:39.369Z,14.70
2018-08-18T04:17:39.236Z,13.90
2018-08-18T04:20:08.624Z,13.95
2018-08-18T04:22:38.528Z,12.80
2018-08-18T04:25:07.660Z,12.98
2018-08-18T04:27:42.752Z,11.65
2018-08-18T04:30:17.471Z,11.88
2018-08-18T04:32:53.992Z,12.23
2018-08-18T04:35:24.121Z,11.08
2018-08-18T04:37:53.897Z,10.50
2018-08-18T04:40:23.419Z,10.60
2018-08-18T04:42:52.280Z,9.55
2018-08-18T04:45:22.443Z,10.03
2018-08-18T04:47:51.345Z,10.10
2018-08-18T04:50:21.224Z,9.80
2018-08-18T04:52:51.767Z,10.68
2018-08-18T04:55:21.046Z,13.72
2018-08-18T04:57:50.028Z,11.22
2018-08-18T05:00:19.062Z,11.15
2018-08-18T05:02:55.010Z,12.00
2018-08-18T05:05:26.951Z,12.90
2018-08-18T05:07:56.782Z,13.83
2018-08-18T05:10:25.668Z,13.40
2018-08-18T05:12:54.663Z,12.93
2018-08-18T05:15:24.319Z,12.95
2018-08-18T05:17:53.339Z,12.65
2018-08-18T05:20:24.276Z,12.07
2018-08-18T05:22:54.095Z,11.43
2018-08-18T05:25:29.106Z,10.63
2018-08-18T05:27:59.227Z,9.85
2018-08-18T05:30:28.214Z,10.05
2018-08-18T05:32:57.275Z,10.53
2018-08-18T05:35:26.406Z,9.85
2018-08-18T05:37:55.247Z,9.98
2018-08-18T05:40:24.257Z,10.10
2018-08-18T05:42:53.286Z,9.80
2018-08-18T05:45:30.428Z,10.23
2018-08-18T05:47:59.443Z,10.23
2018-08-18T05:50:29.475Z,9.98
2018-08-18T05:53:24.321Z,11.80
2018-08-18T05:55:53.099Z,10.35
2018-08-18T05:58:22.606Z,10.88
2018-08-18T06:01:27.324Z,11.40
2018-08-18T06:04:01.183Z,10.68
2018-08-18T06:06:30.187Z,10.65
2018-08-18T06:08:59.556Z,10.23
2018-08-18T06:11:29.447Z,10.55
2018-08-18T06:13:59.925Z,10.15
2018-08-18T06:16:29.095Z,9.90
2018-08-18T06:18:57.918Z,9.48
2018-08-18T06:21:27.119Z,9.48
2018-08-18T06:23:56.640Z,16.90
2018-08-18T06:26:27.031Z,11.33
2018-08-18T06:28:56.481Z,10.05
2018-08-18T06:31:25.418Z,10.00
2018-08-18T06:33:54.531Z,9.98
2018-08-18T06:36:23.884Z,11.70
2018-08-18T06:38:53.661Z,12.43
2018-08-18T06:41:23.114Z,11.18
2018-08-18T06:43:52.092Z,9.55
2018-08-18T06:46:21.542Z,10.82
2018-08-18T06:48:51.685Z,9.73
2018-08-18T06:51:21.103Z,9.90
2018-08-18T06:53:50.291Z,12.73
2018-08-18T06:56:19.902Z,14.00
2018-08-18T06:58:50.238Z,11.50
2018-08-18T07:01:18.953Z,10.72
2018-08-18T07:03:48.239Z,9.35
2018-08-18T07:06:18.127Z,8.90
2018-08-18T07:08:52.988Z,9.08
2018-08-18T07:11:22.107Z,9.93
2018-08-18T07:13:50.852Z,9.20
2018-08-18T07:16:19.546Z,9.55
2018-08-18T07:18:48.268Z,8.90
2018-08-18T07:21:17.043Z,9.00
2018-08-18T07:23:45.766Z,8.00
2018-08-18T07:26:14.543Z,8.33
2018-08-18T07:28:43.451Z,8.25
2018-08-18T07:31:12.176Z,8.28
2018-08-18T07:33:41.089Z,7.30
2018-08-18T07:36:09.706Z,6.37
2018-08-18T07:38:38.468Z,6.22
2018-08-18T07:41:07.683Z,4.87
2018-08-18T07:43:36.334Z,4.42
2018-08-18T07:46:07.391Z,4.00
2018-08-18T07:48:36.502Z,4.53
2018-08-18T07:51:05.290Z,5.30
2018-08-18T07:53:34.093Z,3.55
2018-08-18T07:56:02.876Z,3.17
2018-08-18T07:58:31.622Z,3.33
2018-08-18T08:01:00.874Z,2.80
2018-08-18T08:03:29.636Z,4.05
2018-08-18T08:05:58.390Z,4.00
2018-08-18T08:08:34.812Z,4.10
2018-08-18T08:11:08.924Z,4.30
2018-08-18T08:13:38.123Z,4.35
2018-08-18T08:16:06.859Z,3.90
2018-08-18T08:18:36.491Z,3.45
2018-08-18T08:21:06.114Z,3.60
2018-08-18T08:23:35.203Z,1.50
2018-08-18T08:26:04.199Z,2.02
2018-08-18T08:28:33.249Z,2.12
2018-08-18T08:31:02.606Z,2.90
2018-08-18T08:33:35.544Z,1.82
2018-08-18T08:36:08.602Z,2.37
2018-08-18T08:38:50.089Z,2.42
2018-08-18T08:41:19.135Z,2.65
2018-08-18T08:43:49.187Z,2.70
2018-08-18T08:46:19.205Z,2.35
2018-08-18T08:48:55.203Z,2.50
2018-08-18T08:51:24.787Z,1.70
2018-08-18T08:53:55.766Z,2.17
2018-08-18T08:56:44.984Z,2.65
2018-08-18T08:59:14.055Z,1.72
2018-08-18T09:01:43.286Z,2.55
2018-08-18T09:04:12.007Z,1.82
2018-08-18T09:06:45.842Z,2.00
2018-08-18T09:09:15.694Z,1.67
2018-08-18T09:11:44.779Z,1.80
2018-08-18T09:14:13.550Z,1.90
2018-08-18T09:16:43.210Z,2.22
2018-08-18T09:19:12.178Z,1.65
2018-08-18T09:21:46.331Z,1.95
2018-08-18T09:24:16.103Z,1.92
2018-08-18T09:26:58.675Z,2.00
2018-08-18T09:29:29.335Z,1.90
2018-08-18T09:31:58.762Z,1.87
2018-08-18T09:34:28.410Z,2.05
2018-08-18T09:36:57.556Z,1.85
2018-08-18T09:39:33.859Z,1.87
2018-08-18T09:42:05.427Z,2.33
2018-08-18T09:44:37.298Z,2.62
2018-08-18T09:47:06.764Z,1.95
2018-08-18T09:49:35.633Z,2.40
2018-08-18T09:52:04.880Z,2.70
2018-08-18T09:54:34.357Z,2.70
2018-08-18T09:57:04.157Z,2.37
2018-08-18T09:59:33.399Z,1.62
2018-08-18T10:02:02.520Z,1.65
2018-08-18T10:04:31.316Z,2.10
2018-08-18T10:07:00.157Z,2.25
2018-08-18T10:09:28.895Z,2.85
2018-08-18T10:11:57.827Z,2.75
2018-08-18T10:14:26.754Z,2.27
2018-08-18T10:16:55.907Z,2.52
2018-08-18T10:19:25.316Z,2.25
2018-08-18T10:21:55.167Z,2.25
2018-08-18T10:24:24.631Z,2.58
2018-08-18T10:26:58.825Z,2.52
2018-08-18T10:29:27.546Z,2.45
2018-08-18T10:31:58.488Z,2.45
2018-08-18T10:34:28.786Z,2.60
2018-08-18T10:37:03.022Z,2.47
2018-08-18T10:39:32.626Z,2.87
2018-08-18T10:42:09.202Z,2.72
2018-08-18T10:44:38.246Z,2.83
2018-08-18T10:47:11.585Z,1.92
2018-08-18T10:49:51.670Z,2.30
2018-08-18T10:52:32.623Z,2.83
2018-08-18T10:55:04.131Z,2.35
2018-08-18T10:57:44.942Z,2.72
2018-08-18T11:00:15.660Z,2.25
2018-08-18T11:02:46.336Z,2.80
2018-08-18T11:05:15.848Z,2.65
2018-08-18T11:07:50.590Z,2.20
2018-08-18T11:10:20.057Z,2.20
2018-08-18T11:12:48.871Z,2.50
2018-08-18T11:15:17.782Z,2.22
2018-08-18T11:17:46.836Z,2.20
2018-08-18T11:20:25.270Z,2.72
2018-08-18T11:23:11.860Z,1.85
2018-08-18T11:25:46.042Z,2.00
2018-08-18T11:28:15.843Z,2.10
2018-08-18T11:30:44.776Z,2.33
2018-08-18T11:33:45.847Z,2.08
2018-08-18T11:36:15.408Z,2.00
2018-08-18T11:38:44.438Z,2.00
2018-08-18T11:41:14.183Z,1.90
2018-08-18T11:43:46.827Z,1.95
2018-08-18T11:46:16.027Z,1.70
2018-08-18T11:48:45.214Z,2.40
2018-08-18T11:51:14.215Z,1.98
2018-08-18T11:53:56.869Z,1.77
2018-08-18T11:56:25.925Z,1.72
2018-08-18T11:59:07.894Z,1.62
2018-08-18T12:01:38.371Z,1.70
2018-08-18T12:04:07.573Z,1.80
2018-08-18T12:06:42.165Z,1.77
2018-08-18T12:09:12.080Z,1.90
2018-08-18T12:11:42.598Z,2.02
2018-08-18T12:14:11.658Z,1.80
2018-08-18T12:16:40.654Z,1.85
2018-08-18T12:19:09.331Z,1.27
2018-08-18T12:21:45.339Z,1.40
2018-08-18T12:24:17.853Z,1.50
2018-08-18T12:26:57.485Z,1.72
2018-08-18T12:29:26.922Z,1.30
2018-08-18T12:31:55.577Z,1.10
2018-08-18T12:34:24.515Z,1.35
2018-08-18T12:36:53.466Z,1.62
2018-08-18T12:39:22.862Z,1.20
2018-08-18T12:41:51.906Z,1.62
2018-08-18T12:44:26.323Z,1.02
2018-08-18T12:46:55.590Z,1.20
2018-08-18T12:49:26.008Z,1.20
2018-08-18T12:51:55.163Z,0.90
2018-08-18T12:54:24.754Z,1.10
2018-08-18T12:56:54.299Z,1.15
2018-08-18T12:59:23.320Z,1.20
2018-08-18T13:01:52.260Z,1.40
2018-08-18T13:04:22.165Z,1.75
2018-08-18T13:06:53.303Z,1.57
2018-08-18T13:09:24.254Z,1.50
2018-08-18T13:11:54.637Z,1.65
2018-08-18T13:14:27.141Z,1.50
2018-08-18T13:16:55.919Z,1.75
2018-08-18T13:19:26.671Z,1.62
2018-08-18T13:21:55.648Z,2.15
2018-08-18T13:24:24.426Z,2.02
2018-08-18T13:26:53.491Z,1.62
2018-08-18T13:29:22.316Z,2.00
2018-08-18T13:31:51.445Z,1.67
2018-08-18T13:34:20.263Z,1.45
2018-08-18T13:36:49.297Z,1.75
2018-08-18T13:39:19.647Z,1.30
2018-08-18T13:41:49.596Z,1.90
2018-08-18T13:44:26.971Z,1.37
2018-08-18T13:46:55.930Z,1.52
2018-08-18T13:49:25.812Z,1.90
2018-08-18T13:51:54.546Z,1.65
2018-08-18T13:54:23.348Z,1.80
2018-08-18T13:56:52.194Z,1.80
2018-08-18T13:59:35.799Z,1.60
2018-08-18T14:02:04.631Z,1.30
2018-08-18T14:04:33.429Z,1.30
2018-08-18T14:07:02.634Z,1.45
2018-08-18T14:09:31.694Z,1.62
2018-08-18T14:12:06.548Z,1.77
2018-08-18T14:14:36.067Z,1.55
2018-08-18T14:17:05.574Z,1.02
2018-08-18T14:19:35.189Z,1.52
2018-08-18T14:22:08.462Z,1.57
2018-08-18T14:24:38.615Z,1.37
2018-08-18T14:27:16.595Z,1.85
2018-08-18T14:29:46.152Z,1.55
2018-08-18T14:32:20.230Z,1.70
2018-08-18T14:34:55.303Z,1.60
2018-08-18T14:37:24.971Z,1.77
2018-08-18T14:39:54.273Z,1.98
2018-08-18T14:42:23.477Z,2.30
2018-08-18T14:44:53.380Z,2.00
2018-08-18T14:47:22.247Z,2.37
2018-08-18T14:49:53.850Z,2.20
2018-08-18T14:52:22.623Z,1.80
2018-08-18T14:54:51.297Z,2.77
2018-08-18T14:57:20.236Z,2.45
2018-08-18T14:59:49.031Z,2.25
2018-08-18T15:02:17.950Z,2.35
2018-08-18T15:04:47.150Z,2.30
2018-08-18T15:07:16.076Z,2.50
2018-08-18T15:09:45.970Z,2.00
2018-08-18T15:12:15.302Z,2.20
2018-08-18T15:14:44.974Z,2.58
2018-08-18T15:17:13.679Z,2.15
2018-08-18T15:19:42.421Z,2.40
2018-08-18T15:22:12.708Z,2.17
2018-08-18T15:24:41.805Z,2.40
2018-08-18T15:27:10.922Z,2.40
2018-08-18T15:29:39.668Z,2.40
2018-08-18T15:32:09.139Z,2.58
2018-08-18T15:34:38.316Z,2.92
2018-08-18T15:37:08.195Z,2.87
2018-08-18T15:39:36.920Z,3.08
2018-08-18T15:42:05.750Z,2.75
2018-08-18T15:44:37.822Z,2.45
2018-08-18T15:47:06.596Z,3.15
2018-08-18T15:49:35.363Z,2.98
2018-08-18T15:52:04.131Z,2.83
2018-08-18T15:54:33.118Z,2.98
2018-08-18T15:57:01.895Z,2.70
2018-08-18T15:59:30.523Z,3.17
2018-08-18T16:01:59.257Z,3.20
2018-08-18T16:04:28.102Z,3.50
2018-08-18T16:06:56.972Z,3.27
2018-08-18T16:09:25.620Z,3.25
2018-08-18T16:11:54.325Z,3.52
2018-08-18T16:14:23.078Z,3.47
2018-08-18T16:17:00.203Z,3.37
2018-08-18T16:19:31.819Z,4.12
2018-08-18T16:22:01.100Z,3.37
2018-08-18T16:24:39.560Z,3.42
2018-08-18T16:27:08.607Z,3.60
2018-08-18T16:29:37.998Z,3.80
2018-08-18T16:32:18.964Z,3.67
2018-08-18T16:34:48.969Z,3.60
2018-08-18T16:37:17.660Z,3.22
2018-08-18T16:39:46.583Z,3.75
2018-08-18T16:42:15.434Z,4.12
2018-08-18T16:44:44.098Z,3.70
2018-08-18T16:47:12.851Z,3.90
2018-08-18T16:49:41.535Z,3.70
2018-08-18T16:52:10.327Z,3.98
2018-08-18T16:54:39.827Z,4.47
2018-08-18T16:57:08.886Z,4.17
2018-08-18T16:59:38.499Z,4.00
2018-08-18T17:02:13.611Z,3.90
2018-08-18T17:04:42.535Z,4.12
2018-08-18T17:07:16.597Z,3.62
2018-08-18T17:09:45.434Z,4.15
2018-08-18T17:12:22.374Z,4.12
2018-08-18T17:14:51.119Z,4.40
2018-08-18T17:17:21.928Z,4.20
2018-08-18T17:19:50.692Z,4.90
2018-08-18T17:22:19.558Z,5.35
2018-08-18T17:24:48.427Z,4.85
2018-08-18T17:27:17.208Z,5.75
2018-08-18T17:29:47.622Z,4.85
2018-08-18T17:32:16.291Z,5.17
2018-08-18T17:34:45.334Z,5.25
2018-08-18T17:37:14.219Z,5.37
2018-08-18T17:39:42.958Z,5.22
2018-08-18T17:42:11.707Z,5.53
2018-08-18T17:44:40.386Z,5.50
2018-08-18T17:47:10.402Z,5.55
2018-08-18T17:50:13.568Z,5.60
2018-08-18T17:52:42.610Z,5.47
2018-08-18T17:55:16.291Z,5.58
2018-08-18T17:57:45.059Z,6.37
2018-08-18T18:00:16.894Z,5.50
2018-08-18T18:02:51.486Z,6.50
2018-08-18T18:05:22.666Z,5.97
2018-08-18T18:07:55.314Z,5.53
2018-08-18T18:10:27.018Z,5.80
2018-08-18T18:12:55.774Z,6.55
2018-08-18T18:15:28.086Z,6.30
2018-08-18T18:17:56.913Z,7.55
2018-08-18T18:20:28.738Z,6.08
2018-08-18T18:22:57.793Z,6.10
2018-08-18T18:25:26.493Z,6.67
2018-08-18T18:27:55.292Z,7.12
2018-08-18T18:30:27.555Z,6.67
2018-08-18T18:32:57.156Z,6.80
2018-08-18T18:35:26.199Z,6.28
2018-08-18T18:37:58.451Z,6.17
2018-08-18T18:40:27.242Z,6.10
2018-08-18T18:42:56.010Z,8.90
2018-08-18T18:45:26.095Z,6.55
2018-08-18T18:47:54.839Z,6.87
2018-08-18T18:50:23.601Z,7.20
2018-08-18T18:52:52.322Z,6.15
2018-08-18T18:55:22.464Z,6.47
2018-08-18T18:58:03.277Z,6.78
2018-08-18T19:00:34.059Z,6.12
2018-08-18T19:03:03.222Z,6.83
2018-08-18T19:05:33.238Z,7.10
2018-08-18T19:08:21.570Z,7.28
2018-08-18T19:10:50.577Z,7.10
2018-08-18T19:13:20.107Z,6.12
2018-08-18T19:15:49.126Z,6.55
2018-08-18T19:18:18.163Z,6.85
2018-08-18T19:20:47.115Z,7.03
2018-08-18T19:23:19.947Z,6.30
2018-08-18T19:25:50.872Z,6.75
2018-08-18T19:28:22.508Z,6.95
2018-08-18T19:30:52.094Z,6.45
2018-08-18T19:33:21.413Z,8.98
2018-08-18T19:35:52.054Z,9.03
2018-08-18T19:38:21.963Z,8.55
2018-08-18T19:40:54.334Z,9.33
2018-08-18T19:43:26.413Z,10.55
2018-08-18T19:45:56.360Z,9.43
2018-08-18T19:48:27.599Z,9.75
2018-08-18T19:51:01.641Z,8.80
2018-08-18T19:53:31.884Z,8.63
2018-08-18T19:56:01.519Z,8.78
2018-08-18T19:58:30.719Z,9.20
2018-08-18T20:00:59.860Z,8.45
2018-08-18T20:03:29.020Z,9.15
2018-08-18T20:05:58.158Z,8.80
2018-08-18T20:08:28.000Z,7.97
2018-08-18T20:10:58.340Z,8.10
2018-08-18T20:13:28.707Z,7.85
2018-08-18T20:16:00.014Z,8.25
2018-08-18T20:18:29.494Z,8.78
2018-08-18T20:20:59.332Z,12.75
2018-08-18T20:23:28.130Z,12.73
2018-08-18T20:25:57.367Z,13.18
2018-08-18T20:28:26.430Z,13.28
2018-08-18T20:30:55.531Z,13.95
2018-08-18T20:33:24.512Z,14.63
2018-08-18T20:35:53.945Z,13.25
2018-08-18T20:38:22.987Z,14.28
2018-08-18T20:40:52.344Z,14.83
2018-08-18T20:43:21.296Z,13.53
2018-08-18T20:45:50.712Z,13.90
2018-08-18T20:48:22.445Z,13.53
2018-08-18T20:50:51.867Z,12.13
2018-08-18T20:53:21.499Z,11.08
2018-08-18T20:56:03.140Z,11.20
2018-08-18T20:58:35.102Z,11.33
2018-08-18T21:01:04.387Z,10.72
2018-08-18T21:03:47.039Z,10.25
2018-08-18T21:06:16.986Z,11.70
2018-08-18T21:08:46.059Z,11.33
2018-08-18T21:11:15.139Z,11.88
2018-08-18T21:13:47.369Z,11.43
2018-08-18T21:16:16.891Z,10.28
2018-08-18T21:18:45.819Z,11.40
2018-08-18T21:21:32.427Z,10.93
2018-08-18T21:24:01.319Z,10.58
2018-08-18T21:26:30.513Z,9.80
2018-08-18T21:28:59.664Z,10.15
2018-08-18T21:31:34.731Z,10.25
2018-08-18T21:34:04.899Z,10.70
2018-08-18T21:36:34.323Z,10.20
2018-08-18T21:39:06.863Z,10.30
2018-08-18T21:41:39.554Z,10.45
2018-08-18T21:44:10.246Z,10.20
2018-08-18T21:46:39.686Z,11.25
2018-08-18T21:49:08.914Z,10.45
2018-08-18T21:51:37.794Z,10.80
2018-08-18T21:54:06.863Z,10.10
2018-08-18T21:56:38.558Z,10.23
2018-08-18T21:59:09.051Z,10.03
2018-08-18T22:01:38.079Z,10.63
2018-08-18T22:04:07.582Z,9.85
2018-08-18T22:06:36.555Z,10.23
2018-08-18T22:09:19.949Z,11.55
2018-08-18T22:11:48.826Z,10.63
2018-08-18T22:14:18.524Z,11.60
2018-08-18T22:16:55.076Z,10.72
2018-08-18T22:19:23.969Z,11.30
2018-08-18T22:21:52.913Z,11.57
2018-08-18T22:24:23.169Z,10.78
2018-08-18T22:26:52.374Z,10.18
2018-08-18T22:29:26.206Z,10.45
2018-08-18T22:31:55.482Z,10.50
2018-08-18T22:34:24.475Z,10.25
2018-08-18T22:37:00.949Z,10.60
2018-08-18T22:39:29.954Z,10.18
2018-08-18T22:41:59.553Z,10.18
2018-08-18T22:44:29.003Z,10.38
2018-08-18T22:46:58.018Z,10.20
2018-08-18T22:49:27.230Z,10.72
2018-08-18T22:51:56.198Z,10.72
2018-08-18T22:54:25.473Z,11.33
2018-08-18T22:56:59.683Z,10.88
2018-08-18T22:59:28.659Z,10.82
2018-08-18T23:01:57.440Z,10.23
2018-08-18T23:04:33.980Z,10.43
2018-08-18T23:07:04.534Z,11.18
2018-08-18T23:09:33.307Z,10.53
2018-08-18T23:12:04.246Z,11.10
2018-08-18T23:14:34.813Z,10.93
2018-08-18T23:17:03.939Z,11.18
2018-08-18T23:19:34.235Z,10.53
2018-08-18T23:22:03.518Z,10.53
2018-08-18T23:24:34.854Z,11.63
2018-08-18T23:27:04.120Z,10.20
2018-08-18T23:29:32.968Z,11.55
2018-08-18T23:32:13.365Z,10.93
2018-08-18T23:34:42.231Z,11.03
2018-08-18T23:37:15.723Z,11.43
2018-08-18T23:39:45.232Z,11.40
2018-08-18T23:42:16.095Z,11.20
2018-08-18T23:44:45.240Z,12.18
2018-08-18T23:47:14.157Z,11.08
2018-08-18T23:49:44.118Z,11.90
2018-08-18T23:52:13.723Z,10.48
2018-08-18T23:54:42.462Z,10.98
2018-08-18T23:57:11.817Z,10.70
2018-08-18T23:59:41.390Z,11.08
